createdAt,value
2022-08-24T00:00:22.345Z,22.20
2022-08-24T00:02:50.703Z,22.20
2022-08-24T00:05:21.065Z,22.20
2022-08-24T00:07:51.655Z,22.20
2022-08-24T00:10:21.170Z,22.10
2022-08-24T00:12:50.004Z,22.10
2022-08-24T00:15:19.619Z,22.00
2022-08-24T00:17:47.553Z,22.00
2022-08-24T00:20:15.611Z,22.00
2022-08-24T00:22:43.742Z,21.90
2022-08-24T00:25:15.086Z,21.90
2022-08-24T00:27:43.412Z,21.90
2022-08-24T00:30:15.787Z,21.90
2022-08-24T00:32:43.912Z,21.90
2022-08-24T00:35:12.995Z,21.80
2022-08-24T00:37:41.819Z,21.80
2022-08-24T00:40:16.812Z,21.80
2022-08-24T00:42:44.971Z,21.70
2022-08-24T00:45:17.143Z,21.70
2022-08-24T00:47:54.969Z,21.70
2022-08-24T00:50:26.678Z,21.70
2022-08-24T00:52:59.010Z,21.60
2022-08-24T00:55:32.880Z,21.60
2022-08-24T00:58:05.191Z,21.60
2022-08-24T01:00:37.743Z,21.60
2022-08-24T01:03:07.357Z,21.50
2022-08-24T01:05:38.095Z,21.50
2022-08-24T01:08:08.930Z,21.50
2022-08-24T01:10:45.441Z,21.50
2022-08-24T01:13:14.511Z,21.40
2022-08-24T01:15:45.750Z,21.40
2022-08-24T01:18:35.127Z,21.40
2022-08-24T01:21:08.396Z,21.30
2022-08-24T01:23:40.862Z,21.30
2022-08-24T01:26:12.564Z,21.30
2022-08-24T01:28:45.075Z,21.20
2022-08-24T01:31:13.594Z,21.20
2022-08-24T01:33:42.108Z,21.20
2022-08-24T01:36:17.594Z,21.10
2022-08-24T01:38:47.618Z,21.10
2022-08-24T01:41:16.573Z,21.10
2022-08-24T01:43:44.465Z,21.10
2022-08-24T01:46:12.463Z,21.10
2022-08-24T01:48:40.431Z,21.00
2022-08-24T01:51:08.279Z,21.00
2022-08-24T01:53:36.798Z,21.00
2022-08-24T01:56:06.868Z,20.90
2022-08-24T01:58:34.726Z,20.90
2022-08-24T02:01:02.754Z,20.90
2022-08-24T02:03:31.090Z,20.90
2022-08-24T02:05:59.494Z,20.90
2022-08-24T02:08:27.577Z,20.80
2022-08-24T02:10:56.988Z,20.80
2022-08-24T02:13:28.825Z,20.70
2022-08-24T02:15:56.797Z,20.70
2022-08-24T02:18:24.901Z,20.70
2022-08-24T02:20:53.214Z,20.70
2022-08-24T02:23:22.229Z,20.70
2022-08-24T02:25:50.925Z,20.60
2022-08-24T02:28:20.195Z,20.60
2022-08-24T02:30:49.839Z,20.60
2022-08-24T02:33:17.970Z,20.60
2022-08-24T02:35:46.040Z,20.60
2022-08-24T02:38:13.954Z,20.50
2022-08-24T02:40:41.846Z,20.60
2022-08-24T02:43:09.762Z,20.50
2022-08-24T02:45:39.930Z,20.50
2022-08-24T02:48:10.091Z,20.50
2022-08-24T02:50:40.466Z,20.50
2022-08-24T02:53:08.526Z,20.50
2022-08-24T02:55:36.769Z,20.40
2022-08-24T02:58:04.678Z,20.40
2022-08-24T03:00:32.747Z,20.40
2022-08-24T03:03:01.731Z,20.40
2022-08-24T03:05:31.334Z,20.40
2022-08-24T03:07:59.218Z,20.40
2022-08-24T03:10:28.663Z,20.40
2022-08-24T03:12:59.044Z,20.30
2022-08-24T03:15:27.227Z,20.30
2022-08-24T03:17:55.151Z,20.30
2022-08-24T03:20:24.311Z,20.30
2022-08-24T03:22:53.969Z,20.30
2022-08-24T03:25:24.627Z,20.30
2022-08-24T03:27:53.068Z,20.20
2022-08-24T03:30:21.832Z,20.20
2022-08-24T03:32:49.830Z,20.30
2022-08-24T03:35:19.230Z,20.20
2022-08-24T03:37:47.734Z,20.20
2022-08-24T03:40:22.422Z,20.20
2022-08-24T03:42:52.861Z,20.20
2022-08-24T03:45:21.457Z,20.10
2022-08-24T03:47:49.428Z,20.10
2022-08-24T03:50:17.319Z,20.10
2022-08-24T03:52:45.265Z,20.10
2022-08-24T03:55:13.673Z,20.10
2022-08-24T03:57:43.004Z,20.10
2022-08-24T04:00:13.517Z,20.10
2022-08-24T04:02:41.464Z,20.10
2022-08-24T04:05:10.696Z,20.00
2022-08-24T04:07:38.743Z,20.00
2022-08-24T04:10:07.740Z,19.90
2022-08-24T04:12:35.678Z,19.90
2022-08-24T04:15:05.706Z,19.90
2022-08-24T04:17:33.914Z,19.90
2022-08-24T04:20:01.933Z,19.80
2022-08-24T04:22:31.179Z,19.90
2022-08-24T04:24:59.258Z,19.80
2022-08-24T04:27:27.191Z,19.80
2022-08-24T04:29:55.197Z,19.70
2022-08-24T04:32:24.435Z,19.70
2022-08-24T04:34:52.302Z,19.70
2022-08-24T04:37:25.593Z,19.70
2022-08-24T04:39:57.235Z,19.70
2022-08-24T04:42:25.708Z,19.70
2022-08-24T04:44:53.761Z,19.70
2022-08-24T04:47:21.622Z,19.60
2022-08-24T04:49:50.867Z,19.60
2022-08-24T04:52:18.984Z,19.60
2022-08-24T04:54:46.916Z,19.60
2022-08-24T04:57:18.179Z,19.60
2022-08-24T04:59:46.544Z,19.50
2022-08-24T05:02:14.514Z,19.60
2022-08-24T05:04:42.429Z,19.50
2022-08-24T05:07:12.326Z,19.50
2022-08-24T05:09:40.261Z,19.50
2022-08-24T05:12:09.017Z,19.50
2022-08-24T05:14:36.853Z,19.50
2022-08-24T05:17:04.962Z,19.50
2022-08-24T05:19:37.160Z,19.50
2022-08-24T05:22:05.353Z,19.50
2022-08-24T05:24:34.632Z,19.50
2022-08-24T05:27:02.556Z,19.50
2022-08-24T05:29:33.620Z,19.50
2022-08-24T05:32:02.226Z,19.50
2022-08-24T05:34:30.930Z,19.50
2022-08-24T05:36:58.869Z,19.50
2022-08-24T05:39:26.777Z,19.40
2022-08-24T05:41:56.020Z,19.40
2022-08-24T05:44:29.129Z,19.40
2022-08-24T05:46:59.160Z,19.40
2022-08-24T05:49:28.063Z,19.40
2022-08-24T05:51:56.287Z,19.40
2022-08-24T05:54:26.794Z,19.40
2022-08-24T05:56:57.285Z,19.50
2022-08-24T05:59:25.320Z,19.50
2022-08-24T06:01:53.436Z,19.50
2022-08-24T06:04:21.470Z,19.50
2022-08-24T06:06:49.957Z,19.50
2022-08-24T06:09:18.183Z,19.50
2022-08-24T06:11:47.476Z,19.50
2022-08-24T06:14:18.477Z,19.50
2022-08-24T06:16:48.526Z,19.60
2022-08-24T06:19:19.251Z,19.60
2022-08-24T06:21:50.029Z,19.60
2022-08-24T06:24:18.507Z,19.60
2022-08-24T06:27:04.978Z,19.60
2022-08-24T06:29:35.608Z,19.60
2022-08-24T06:32:03.963Z,19.60
2022-08-24T06:34:31.962Z,19.60
2022-08-24T06:36:59.897Z,19.60
2022-08-24T06:39:27.827Z,19.70
2022-08-24T06:41:56.401Z,19.70
2022-08-24T06:44:24.357Z,19.70
2022-08-24T06:46:53.861Z,19.80
2022-08-24T06:49:21.841Z,19.80
2022-08-24T06:51:50.905Z,19.80
2022-08-24T06:54:19.176Z,19.80
2022-08-24T06:56:47.184Z,19.90
2022-08-24T06:59:15.038Z,19.90
2022-08-24T07:01:43.011Z,20.00
2022-08-24T07:04:12.347Z,20.00
2022-08-24T07:06:40.217Z,20.00
2022-08-24T07:09:08.214Z,20.00
2022-08-24T07:11:37.040Z,20.10
2022-08-24T07:14:06.840Z,20.20
2022-08-24T07:16:36.009Z,20.20
2022-08-24T07:19:04.956Z,20.30
2022-08-24T07:21:34.321Z,20.30
2022-08-24T07:24:03.327Z,20.30
2022-08-24T07:26:32.693Z,20.40
2022-08-24T07:29:06.160Z,20.40
2022-08-24T07:31:35.569Z,20.50
2022-08-24T07:34:04.592Z,20.50
2022-08-24T07:36:33.991Z,20.60
2022-08-24T07:39:02.652Z,20.60
2022-08-24T07:41:51.283Z,20.70
2022-08-24T07:44:19.530Z,20.70
2022-08-24T07:46:47.507Z,20.80
2022-08-24T07:49:33.048Z,20.80
2022-08-24T07:52:02.775Z,20.90
2022-08-24T07:54:30.767Z,21.00
2022-08-24T07:57:02.227Z,21.00
2022-08-24T07:59:30.125Z,21.10
2022-08-24T08:01:58.822Z,21.20
2022-08-24T08:04:26.885Z,21.30
2022-08-24T08:09:29.759Z,21.40
2022-08-24T08:11:57.711Z,21.50
2022-08-24T08:14:25.607Z,21.50
2022-08-24T08:16:53.807Z,21.60
2022-08-24T08:19:21.821Z,21.70
2022-08-24T08:22:09.589Z,21.80
2022-08-24T08:24:42.533Z,21.90
2022-08-24T08:27:10.918Z,21.90
2022-08-24T08:29:40.546Z,22.00
2022-08-24T08:32:09.329Z,22.00
2022-08-24T08:34:37.214Z,22.10
2022-08-24T08:37:05.508Z,22.10
2022-08-24T08:39:33.695Z,22.20
2022-08-24T08:42:37.187Z,22.30
2022-08-24T08:45:27.529Z,22.40
2022-08-24T08:48:19.148Z,22.40
2022-08-24T08:51:11.246Z,22.50
2022-08-24T08:54:15.161Z,22.60
2022-08-24T08:56:59.230Z,22.70
2022-08-24T08:59:44.001Z,22.80
2022-08-24T09:02:22.489Z,22.90
2022-08-24T09:05:12.006Z,23.10
2022-08-24T09:07:48.400Z,23.20
2022-08-24T09:10:36.718Z,23.30
2022-08-24T09:13:27.776Z,23.40
2022-08-24T09:16:11.110Z,23.50
2022-08-24T09:19:00.879Z,23.60
2022-08-24T09:21:46.236Z,23.70
2022-08-24T09:24:45.194Z,23.80
2022-08-24T09:27:24.894Z,23.90
2022-08-24T09:30:09.034Z,24.00
2022-08-24T09:32:46.685Z,24.10
2022-08-24T09:35:27.179Z,24.20
2022-08-24T09:38:02.022Z,24.30
2022-08-24T09:40:38.629Z,24.30
2022-08-24T09:43:36.865Z,24.40
2022-08-24T09:46:31.437Z,24.50
2022-08-24T09:49:37.878Z,24.60
2022-08-24T09:52:46.220Z,24.70
2022-08-24T09:55:57.101Z,24.80
2022-08-24T09:58:38.828Z,24.80
2022-08-24T10:01:13.182Z,24.90
2022-08-24T10:03:54.714Z,25.00
2022-08-24T10:06:33.544Z,25.10
2022-08-24T10:09:23.695Z,25.20
2022-08-24T10:12:01.085Z,25.20
2022-08-24T10:14:44.196Z,25.30
2022-08-24T10:17:19.848Z,25.40
2022-08-24T10:20:01.221Z,25.50
2022-08-24T10:22:42.006Z,25.60
2022-08-24T10:25:30.445Z,25.70
2022-08-24T10:28:07.873Z,25.80
2022-08-24T10:30:59.010Z,25.90
2022-08-24T10:33:29.539Z,25.90
2022-08-24T10:36:20.945Z,26.00
2022-08-24T10:39:09.006Z,26.10
2022-08-24T10:42:10.612Z,26.20
2022-08-24T10:44:57.305Z,26.30
2022-08-24T10:47:29.065Z,26.40
2022-08-24T10:50:31.057Z,26.60
2022-08-24T10:53:15.444Z,26.70
2022-08-24T10:55:44.219Z,26.70
2022-08-24T10:58:42.310Z,26.80
2022-08-24T11:01:20.895Z,26.90
2022-08-24T11:03:56.425Z,27.00
2022-08-24T11:06:26.043Z,27.00
2022-08-24T11:08:57.373Z,27.00
2022-08-24T11:11:31.958Z,27.10
2022-08-24T11:14:04.326Z,27.20
2022-08-24T11:16:37.626Z,27.20
2022-08-24T11:19:10.781Z,27.30
2022-08-24T11:21:50.846Z,27.40
2022-08-24T11:24:39.246Z,27.50
2022-08-24T11:27:10.254Z,27.60
2022-08-24T11:30:02.041Z,27.70
2022-08-24T11:32:34.008Z,27.80
2022-08-24T11:35:05.394Z,27.90
2022-08-24T11:37:34.929Z,27.90
2022-08-24T11:40:04.700Z,28.00
2022-08-24T11:42:47.147Z,28.10
2022-08-24T11:45:24.790Z,28.20
2022-08-24T11:48:05.296Z,28.40
2022-08-24T11:50:36.581Z,28.50
2022-08-24T11:53:23.620Z,28.60
2022-08-24T11:56:00.706Z,28.60
2022-08-24T11:58:41.574Z,28.70
2022-08-24T12:01:15.648Z,28.80
2022-08-24T12:04:00.640Z,29.00
2022-08-24T12:06:38.774Z,29.00
2022-08-24T12:09:17.402Z,29.10
2022-08-24T12:11:52.920Z,29.20
2022-08-24T12:14:28.927Z,29.30
2022-08-24T12:17:03.489Z,29.40
2022-08-24T12:19:35.791Z,29.50
2022-08-24T12:22:07.408Z,29.60
2022-08-24T12:24:44.322Z,29.60
2022-08-24T12:27:17.960Z,29.60
2022-08-24T12:29:50.937Z,29.80
2022-08-24T12:32:23.085Z,29.80
2022-08-24T12:34:59.064Z,29.80
2022-08-24T12:37:32.440Z,29.90
2022-08-24T12:40:08.687Z,30.00
2022-08-24T12:42:49.857Z,30.10
2022-08-24T12:45:22.382Z,30.20
2022-08-24T12:47:55.904Z,30.30
2022-08-24T12:50:30.623Z,30.30
2022-08-24T12:53:27.634Z,30.30
2022-08-24T12:56:40.314Z,30.40
2022-08-24T12:59:18.638Z,30.50
2022-08-24T13:01:49.578Z,30.70
2022-08-24T13:04:34.118Z,30.80
2022-08-24T13:07:05.949Z,30.80
2022-08-24T13:09:36.937Z,30.90
2022-08-24T13:12:42.048Z,30.90
2022-08-24T13:15:29.189Z,31.00
2022-08-24T13:18:03.056Z,31.10
2022-08-24T13:20:56.392Z,31.20
2022-08-24T13:23:27.279Z,31.20
2022-08-24T13:25:58.893Z,31.30
2022-08-24T13:28:40.340Z,31.40
2022-08-24T13:31:23.074Z,31.60
2022-08-24T13:33:54.071Z,31.50
2022-08-24T13:37:11.686Z,31.60
2022-08-24T13:40:14.910Z,31.80
2022-08-24T13:43:02.526Z,31.80
2022-08-24T13:45:37.662Z,32.00
2022-08-24T13:48:28.301Z,32.00
2022-08-24T13:51:09.881Z,32.00
2022-08-24T13:54:05.734Z,32.00
2022-08-24T13:57:05.491Z,32.00
2022-08-24T13:59:53.525Z,32.10
2022-08-24T14:02:31.905Z,32.20
2022-08-24T14:05:08.921Z,32.20
2022-08-24T14:07:52.207Z,32.20
2022-08-24T14:10:38.754Z,32.20
2022-08-24T14:13:26.323Z,32.20
2022-08-24T14:16:13.792Z,32.30
2022-08-24T14:18:55.943Z,32.30
2022-08-24T14:21:36.244Z,32.40
2022-08-24T14:24:09.078Z,32.50
2022-08-24T14:27:03.759Z,32.50
2022-08-24T14:29:48.811Z,32.70
2022-08-24T14:32:41.623Z,32.60
2022-08-24T14:35:32.209Z,32.70
2022-08-24T14:38:24.008Z,32.90
2022-08-24T14:41:15.240Z,32.90
2022-08-24T14:44:22.201Z,33.00
2022-08-24T14:46:59.391Z,33.00
2022-08-24T14:49:34.831Z,33.00
2022-08-24T14:52:12.130Z,33.10
2022-08-24T14:54:53.245Z,33.10
2022-08-24T14:57:35.833Z,33.10
2022-08-24T15:00:12.234Z,33.10
2022-08-24T15:03:16.907Z,33.00
2022-08-24T15:06:15.953Z,33.10
2022-08-24T15:08:43.743Z,33.00
2022-08-24T15:11:13.673Z,33.10
2022-08-24T15:13:47.863Z,33.20
2022-08-24T15:16:23.828Z,33.20
2022-08-24T15:19:02.848Z,33.20
2022-08-24T15:21:43.980Z,33.30
2022-08-24T15:27:08.168Z,33.40
2022-08-24T15:29:46.524Z,33.50
2022-08-24T15:32:16.232Z,33.50
2022-08-24T15:34:48.607Z,33.50
2022-08-24T15:37:18.098Z,33.50
2022-08-24T15:39:46.170Z,33.50
2022-08-24T15:42:16.621Z,33.50
2022-08-24T15:44:45.793Z,33.40
2022-08-24T15:47:22.624Z,33.50
2022-08-24T15:49:53.980Z,33.50
2022-08-24T15:52:51.350Z,33.50
2022-08-24T15:55:44.101Z,33.40
2022-08-24T15:58:34.158Z,33.40
2022-08-24T16:01:37.769Z,33.40
2022-08-24T16:04:09.483Z,33.30
2022-08-24T16:06:40.886Z,33.20
2022-08-24T16:09:14.698Z,33.10
2022-08-24T16:11:46.557Z,33.00
2022-08-24T16:14:24.476Z,33.00
2022-08-24T16:16:56.285Z,33.00
2022-08-24T16:19:28.404Z,33.00
2022-08-24T16:22:01.036Z,32.90
2022-08-24T16:24:32.549Z,32.90
2022-08-24T16:27:05.125Z,32.90
2022-08-24T16:29:55.612Z,32.90
2022-08-24T16:32:33.067Z,32.90
2022-08-24T16:35:19.814Z,32.80
2022-08-24T16:37:47.831Z,32.80
2022-08-24T16:40:15.964Z,32.70
2022-08-24T16:42:44.212Z,32.70
2022-08-24T16:45:17.265Z,32.60
2022-08-24T16:47:45.657Z,32.60
2022-08-24T16:50:14.430Z,32.60
2022-08-24T16:52:43.709Z,32.50
2022-08-24T16:55:14.645Z,32.50
2022-08-24T16:57:43.222Z,32.50
2022-08-24T17:00:15.653Z,32.50
2022-08-24T17:02:44.065Z,32.40
2022-08-24T17:05:12.614Z,32.30
2022-08-24T17:07:40.578Z,32.30
2022-08-24T17:10:13.369Z,32.20
2022-08-24T17:12:41.260Z,32.20
2022-08-24T17:15:11.574Z,32.10
2022-08-24T17:17:41.477Z,32.00
2022-08-24T17:20:10.959Z,31.90
2022-08-24T17:22:39.623Z,31.90
2022-08-24T17:25:09.128Z,31.80
2022-08-24T17:27:37.024Z,31.80
2022-08-24T17:30:07.027Z,31.70
2022-08-24T17:32:34.906Z,31.70
2022-08-24T17:35:03.445Z,31.60
2022-08-24T17:37:31.663Z,31.60
2022-08-24T17:40:01.888Z,31.50
2022-08-24T17:42:50.098Z,31.50
2022-08-24T17:45:20.286Z,31.40
2022-08-24T17:47:48.306Z,31.30
2022-08-24T17:50:19.683Z,31.30
2022-08-24T17:52:48.352Z,31.20
2022-08-24T17:55:24.099Z,31.10
2022-08-24T17:57:54.681Z,31.00
2022-08-24T18:00:22.798Z,30.90
2022-08-24T18:02:50.745Z,30.90
2022-08-24T18:05:18.777Z,30.80
2022-08-24T18:07:53.982Z,30.80
2022-08-24T18:10:25.122Z,30.70
2022-08-24T18:12:54.736Z,30.60
2022-08-24T18:15:35.448Z,30.50
2022-08-24T18:18:08.326Z,30.50
2022-08-24T18:20:39.137Z,30.30
2022-08-24T18:23:11.349Z,30.30
2022-08-24T18:25:45.775Z,30.20
2022-08-24T18:28:16.097Z,30.20
2022-08-24T18:30:44.695Z,30.10
2022-08-24T18:33:12.601Z,30.00
2022-08-24T18:35:40.488Z,29.90
2022-08-24T18:38:08.536Z,29.80
2022-08-24T18:40:36.739Z,29.80
2022-08-24T18:43:05.512Z,29.70
2022-08-24T18:45:36.086Z,29.70
2022-08-24T18:48:04.439Z,29.60
2022-08-24T18:50:33.356Z,29.50
2022-08-24T18:53:01.385Z,29.50
2022-08-24T18:55:29.308Z,29.40
2022-08-24T18:57:58.055Z,29.30
2022-08-24T19:00:26.253Z,29.30
2022-08-24T19:02:56.582Z,29.20
2022-08-24T19:05:25.620Z,29.10
2022-08-24T19:07:54.868Z,29.10
2022-08-24T19:10:24.743Z,29.00
2022-08-24T19:12:55.895Z,28.90
2022-08-24T19:15:32.063Z,28.90
2022-08-24T19:18:10.865Z,28.80
2022-08-24T19:20:43.399Z,28.80
2022-08-24T19:23:19.507Z,28.80
2022-08-24T19:25:47.550Z,28.70
2022-08-24T19:28:15.486Z,28.60
2022-08-24T19:30:44.524Z,28.60
2022-08-24T19:33:17.015Z,28.60
2022-08-24T19:35:44.897Z,28.50
2022-08-24T19:38:12.766Z,28.40
2022-08-24T19:40:40.746Z,28.40
2022-08-24T19:43:16.660Z,28.40
2022-08-24T19:46:05.738Z,28.30
2022-08-24T19:48:39.532Z,28.30
2022-08-24T19:51:11.611Z,28.20
2022-08-24T19:53:39.960Z,28.20
2022-08-24T19:56:08.774Z,28.10
2022-08-24T19:58:45.427Z,28.10
2022-08-24T20:01:15.753Z,28.00
2022-08-24T20:03:45.020Z,27.90
2022-08-24T20:06:13.399Z,27.90
2022-08-24T20:08:41.865Z,27.90
2022-08-24T20:11:10.428Z,27.70
2022-08-24T20:13:38.731Z,27.70
2022-08-24T20:16:10.616Z,27.60
2022-08-24T20:18:39.472Z,27.60
2022-08-24T20:21:09.327Z,27.50
2022-08-24T20:23:37.444Z,27.40
2022-08-24T20:26:08.343Z,27.30
2022-08-24T20:28:41.335Z,27.30
2022-08-24T20:31:10.243Z,27.20
2022-08-24T20:33:38.191Z,27.20
2022-08-24T20:36:08.962Z,27.20
2022-08-24T20:38:36.973Z,27.10
2022-08-24T20:41:05.082Z,27.10
2022-08-24T20:43:33.045Z,27.00
2022-08-24T20:46:01.732Z,26.90
2022-08-24T20:48:32.455Z,26.80
2022-08-24T20:51:00.646Z,26.80
2022-08-24T20:53:30.179Z,26.80
2022-08-24T20:56:00.071Z,26.70
2022-08-24T20:58:27.971Z,26.60
2022-08-24T21:00:55.897Z,26.60
2022-08-24T21:03:23.848Z,26.50
2022-08-24T21:05:52.466Z,26.50
2022-08-24T21:08:20.838Z,26.40
2022-08-24T21:10:50.022Z,26.40
2022-08-24T21:13:18.102Z,26.40
2022-08-24T21:15:46.388Z,26.30
2022-08-24T21:18:14.602Z,26.20
2022-08-24T21:20:44.624Z,26.20
2022-08-24T21:23:28.605Z,26.10
2022-08-24T21:25:58.540Z,26.10
2022-08-24T21:28:26.449Z,26.00
2022-08-24T21:30:54.355Z,26.00
2022-08-24T21:33:39.905Z,25.90
2022-08-24T21:36:08.910Z,25.90
2022-08-24T21:38:37.074Z,25.80
2022-08-24T21:41:08.430Z,25.80
2022-08-24T21:43:36.251Z,25.80
2022-08-24T21:46:04.240Z,25.80
2022-08-24T21:48:32.375Z,25.70
2022-08-24T21:51:00.215Z,25.70
2022-08-24T21:53:28.665Z,25.60
2022-08-24T21:55:57.238Z,25.60
2022-08-24T21:58:27.098Z,25.60
2022-08-24T22:00:58.993Z,25.50
2022-08-24T22:03:40.151Z,25.50
2022-08-24T22:06:09.000Z,25.50
2022-08-24T22:08:36.972Z,25.40
2022-08-24T22:11:05.217Z,25.40
2022-08-24T22:13:34.832Z,25.40
2022-08-24T22:16:02.995Z,25.30
2022-08-24T22:18:30.965Z,25.30
2022-08-24T22:20:59.189Z,25.30
2022-08-24T22:23:27.138Z,25.30
2022-08-24T22:25:55.393Z,25.20
2022-08-24T22:28:24.229Z,25.20
2022-08-24T22:30:53.437Z,25.20
2022-08-24T22:33:21.315Z,25.10
2022-08-24T22:35:50.376Z,25.10
2022-08-24T22:38:19.324Z,25.00
2022-08-24T22:40:47.817Z,25.00
2022-08-24T22:43:15.677Z,25.00
2022-08-24T22:45:43.567Z,24.90
2022-08-24T22:48:12.789Z,24.90
2022-08-24T22:50:44.222Z,24.80
2022-08-24T22:53:12.228Z,24.80
2022-08-24T22:55:40.143Z,24.80
2022-08-24T22:58:08.014Z,24.70
2022-08-24T23:00:35.925Z,24.70
2022-08-24T23:03:03.977Z,24.60
2022-08-24T23:05:33.571Z,24.60
2022-08-24T23:08:01.778Z,24.50
2022-08-24T23:10:29.737Z,24.50
2022-08-24T23:12:58.876Z,24.50
2022-08-24T23:15:26.785Z,24.50
2022-08-24T23:17:54.755Z,24.40
2022-08-24T23:20:21.666Z,24.30
2022-08-24T23:22:50.893Z,24.30
2022-08-24T23:25:18.734Z,24.30
2022-08-24T23:27:49.450Z,24.30
2022-08-24T23:30:18.149Z,24.20
2022-08-24T23:32:46.212Z,24.20
2022-08-24T23:35:14.120Z,24.10
2022-08-24T23:37:42.138Z,24.10
2022-08-24T23:40:12.694Z,24.10
2022-08-24T23:42:40.599Z,24.10
2022-08-24T23:45:11.932Z,24.00
2022-08-24T23:47:40.718Z,24.00
2022-08-24T23:50:10.859Z,24.00
2022-08-24T23:52:39.980Z,24.00
2022-08-24T23:55:21.093Z,23.90
2022-08-24T23:57:52.252Z,23.90
